createdAt,value
2023-11-12T00:01:12.477Z,7.11
2023-11-12T00:03:40.478Z,7.10
2023-11-12T00:06:08.479Z,7.10
2023-11-12T00:08:37.593Z,7.09
2023-11-12T00:11:06.779Z,7.09
2023-11-12T00:13:34.665Z,7.08
2023-11-12T00:16:02.545Z,7.07
2023-11-12T00:18:30.332Z,7.05
2023-11-12T00:20:58.187Z,7.06
2023-11-12T00:23:26.272Z,7.05
2023-11-12T00:25:55.554Z,7.04
2023-11-12T00:28:23.629Z,7.02
2023-11-12T00:30:51.516Z,7.01
2023-11-12T00:33:20.740Z,6.98
2023-11-12T00:35:48.708Z,6.97
2023-11-12T00:38:16.533Z,6.95
2023-11-12T00:40:44.515Z,6.91
2023-11-12T00:43:14.276Z,6.87
2023-11-12T00:45:42.098Z,6.85
2023-11-12T00:48:10.223Z,6.82
2023-11-12T00:50:37.967Z,6.82
2023-11-12T00:53:06.378Z,6.78
2023-11-12T00:55:34.203Z,6.77
2023-11-12T00:58:02.168Z,6.73
2023-11-12T01:00:31.598Z,6.71
2023-11-12T01:02:59.570Z,6.69
2023-11-12T01:05:28.215Z,6.68
2023-11-12T01:07:56.146Z,6.63
2023-11-12T01:10:24.080Z,6.61
2023-11-12T01:12:52.088Z,6.59
2023-11-12T01:15:20.040Z,6.55
2023-11-12T01:17:49.420Z,6.57
2023-11-12T01:20:18.415Z,6.56
2023-11-12T01:22:46.530Z,6.55
2023-11-12T01:25:15.929Z,6.52
2023-11-12T01:27:43.870Z,6.54
2023-11-12T01:30:12.332Z,6.51
2023-11-12T01:32:40.161Z,6.50
2023-11-12T01:35:11.142Z,6.48
2023-11-12T01:37:38.960Z,6.47
2023-11-12T01:40:07.634Z,6.47
2023-11-12T01:42:35.484Z,6.46
2023-11-12T01:45:03.408Z,6.44
2023-11-12T01:47:31.239Z,6.43
2023-11-12T01:49:59.628Z,6.45
2023-11-12T01:52:28.821Z,6.43
2023-11-12T01:54:57.544Z,6.46
2023-11-12T01:57:26.449Z,6.45
2023-11-12T01:59:54.623Z,6.46
2023-11-12T02:02:23.161Z,6.48
2023-11-12T02:04:51.025Z,6.51
2023-11-12T02:07:20.541Z,6.55
2023-11-12T02:09:56.162Z,6.53
2023-11-12T02:12:24.177Z,6.55
2023-11-12T02:14:52.855Z,6.58
2023-11-12T02:17:20.663Z,6.59
2023-11-12T02:19:48.461Z,6.60
2023-11-12T02:22:16.365Z,6.61
2023-11-12T02:24:45.661Z,6.61
2023-11-12T02:27:13.561Z,6.61
2023-11-12T02:29:49.149Z,6.59
2023-11-12T02:32:17.963Z,6.60
2023-11-12T02:34:46.571Z,6.58
2023-11-12T02:37:15.127Z,6.58
2023-11-12T02:39:43.633Z,6.59
2023-11-12T02:42:14.097Z,6.62
2023-11-12T02:44:42.394Z,6.62
2023-11-12T02:47:10.172Z,6.62
2023-11-12T02:50:01.133Z,6.63
2023-11-12T02:52:28.984Z,6.65
2023-11-12T02:54:56.733Z,6.67
2023-11-12T02:57:25.985Z,6.68
2023-11-12T02:59:53.763Z,6.67
2023-11-12T03:02:23.260Z,6.69
2023-11-12T03:04:51.542Z,6.70
2023-11-12T03:07:20.355Z,6.70
2023-11-12T03:09:49.475Z,6.70
2023-11-12T03:12:17.699Z,6.71
2023-11-12T03:14:47.265Z,6.72
2023-11-12T03:17:15.081Z,6.73
2023-11-12T03:19:42.964Z,6.73
2023-11-12T03:22:11.102Z,6.75
2023-11-12T03:24:38.983Z,6.75
2023-11-12T03:27:07.177Z,6.77
2023-11-12T03:29:35.023Z,6.78
2023-11-12T03:32:04.300Z,6.78
2023-11-12T03:34:32.839Z,6.79
2023-11-12T03:37:00.697Z,6.78
2023-11-12T03:39:28.581Z,6.80
2023-11-12T03:41:56.969Z,6.80
2023-11-12T03:44:24.731Z,6.80
2023-11-12T03:46:52.614Z,6.80
2023-11-12T03:49:21.942Z,6.82
2023-11-12T03:51:49.748Z,6.81
2023-11-12T03:54:17.816Z,6.83
2023-11-12T03:56:45.680Z,6.80
2023-11-12T03:59:13.626Z,6.78
2023-11-12T04:01:41.399Z,6.76
2023-11-12T04:04:09.407Z,6.73
2023-11-12T04:06:39.430Z,6.73
2023-11-12T04:09:07.693Z,6.72
2023-11-12T04:11:36.615Z,6.70
2023-11-12T04:14:04.683Z,6.68
2023-11-12T04:16:34.454Z,6.66
2023-11-12T04:19:02.533Z,6.63
2023-11-12T04:21:30.505Z,6.61
2023-11-12T04:24:00.473Z,6.61
2023-11-12T04:26:30.543Z,6.58
2023-11-12T04:28:58.310Z,6.57
2023-11-12T04:31:26.254Z,6.55
2023-11-12T04:33:55.175Z,6.51
2023-11-12T04:36:23.014Z,6.49
2023-11-12T04:38:50.825Z,6.48
2023-11-12T04:41:19.970Z,6.48
2023-11-12T04:43:47.712Z,6.48
2023-11-12T04:46:15.556Z,6.50
2023-11-12T04:48:43.389Z,6.49
2023-11-12T04:51:11.625Z,6.49
2023-11-12T04:53:40.792Z,6.47
2023-11-12T04:56:09.652Z,6.47
2023-11-12T04:58:38.898Z,6.46
2023-11-12T05:01:07.740Z,6.43
2023-11-12T05:03:35.654Z,6.41
2023-11-12T05:06:05.105Z,6.40
2023-11-12T05:08:32.984Z,6.39
2023-11-12T05:11:00.777Z,6.39
2023-11-12T05:13:28.743Z,6.38
2023-11-12T05:15:58.205Z,6.34
2023-11-12T05:18:26.083Z,6.31
2023-11-12T05:20:53.925Z,6.30
2023-11-12T05:23:21.784Z,6.31
2023-11-12T05:25:49.776Z,6.31
2023-11-12T05:28:17.630Z,6.29
2023-11-12T05:30:45.526Z,6.29
2023-11-12T05:33:14.795Z,6.31
2023-11-12T05:35:42.600Z,6.30
2023-11-12T05:38:10.496Z,6.28
2023-11-12T05:40:39.854Z,6.30
2023-11-12T05:43:07.644Z,6.27
2023-11-12T05:45:35.539Z,6.30
2023-11-12T05:48:05.354Z,6.29
2023-11-12T05:50:34.625Z,6.30
2023-11-12T05:53:02.692Z,6.30
2023-11-12T05:55:30.458Z,6.30
2023-11-12T05:57:58.634Z,6.30
2023-11-12T06:00:26.636Z,6.30
2023-11-12T06:02:54.498Z,6.30
2023-11-12T06:05:22.361Z,6.29
2023-11-12T06:07:51.569Z,6.27
2023-11-12T06:10:19.401Z,6.24
2023-11-12T06:12:47.241Z,6.23
2023-11-12T06:15:15.170Z,6.21
2023-11-12T06:17:42.947Z,6.25
2023-11-12T06:20:12.402Z,6.25
2023-11-12T06:22:40.183Z,6.26
2023-11-12T06:25:12.946Z,6.29
2023-11-12T06:27:41.035Z,6.30
2023-11-12T06:30:11.304Z,6.29
2023-11-12T06:32:39.569Z,6.29
2023-11-12T06:35:08.579Z,6.28
2023-11-12T06:37:36.439Z,6.29
2023-11-12T06:40:04.698Z,6.29
2023-11-12T06:42:33.927Z,6.27
2023-11-12T06:45:01.857Z,6.25
2023-11-12T06:47:29.735Z,6.23
2023-11-12T06:49:57.874Z,6.22
2023-11-12T06:52:25.884Z,6.19
2023-11-12T06:54:53.695Z,6.15
2023-11-12T06:57:21.511Z,6.15
2023-11-12T06:59:50.890Z,6.12
2023-11-12T07:02:18.900Z,6.11
2023-11-12T07:04:48.365Z,6.11
2023-11-12T07:07:17.250Z,6.13
2023-11-12T07:09:47.596Z,6.12
2023-11-12T07:12:16.673Z,6.13
2023-11-12T07:14:44.651Z,6.13
2023-11-12T07:17:13.917Z,6.10
2023-11-12T07:19:42.854Z,6.09
2023-11-12T07:22:11.278Z,6.08
2023-11-12T07:24:39.503Z,6.07
2023-11-12T07:27:07.347Z,6.08
2023-11-12T07:29:35.143Z,6.12
2023-11-12T07:32:02.956Z,6.10
2023-11-12T07:34:32.092Z,6.13
2023-11-12T07:36:59.892Z,6.13
2023-11-12T07:39:27.770Z,6.13
2023-11-12T07:41:55.624Z,6.16
2023-11-12T07:44:23.513Z,6.16
2023-11-12T07:46:51.770Z,6.19
2023-11-12T07:49:19.650Z,6.20
2023-11-12T07:51:52.244Z,6.22
2023-11-12T07:54:20.185Z,6.24
2023-11-12T07:56:48.087Z,6.24
2023-11-12T07:59:15.902Z,6.25
2023-11-12T08:01:43.893Z,6.27
2023-11-12T08:04:11.856Z,6.29
2023-11-12T08:06:40.247Z,6.33
2023-11-12T08:09:09.700Z,6.36
2023-11-12T08:11:41.231Z,6.39
2023-11-12T08:14:10.165Z,6.39
2023-11-12T08:16:38.759Z,6.41
2023-11-12T08:19:07.129Z,6.41
2023-11-12T08:21:35.041Z,6.44
2023-11-12T08:24:02.950Z,6.48
2023-11-12T08:26:33.585Z,6.55
2023-11-12T08:29:01.437Z,6.60
2023-11-12T08:31:29.272Z,6.66
2023-11-12T08:33:57.626Z,6.68
2023-11-12T08:36:25.524Z,6.67
2023-11-12T08:38:53.385Z,6.61
2023-11-12T08:41:21.239Z,6.67
2023-11-12T08:43:51.029Z,6.70
2023-11-12T08:46:20.003Z,6.74
2023-11-12T08:48:47.869Z,6.75
2023-11-12T08:51:15.750Z,6.78
2023-11-12T08:53:43.878Z,6.81
2023-11-12T08:56:11.683Z,6.83
2023-11-12T08:58:39.457Z,6.87
2023-11-12T09:01:10.360Z,6.93
2023-11-12T09:03:39.561Z,7.03
2023-11-12T09:06:08.222Z,7.13
2023-11-12T09:08:36.062Z,7.21
2023-11-12T09:11:03.922Z,7.30
2023-11-12T09:13:31.796Z,7.33
2023-11-12T09:15:59.726Z,7.43
2023-11-12T09:18:29.051Z,7.50
2023-11-12T09:20:56.966Z,7.59
2023-11-12T09:23:24.738Z,7.63
2023-11-12T09:25:52.766Z,7.62
2023-11-12T09:28:20.775Z,7.59
2023-11-12T09:30:57.515Z,7.56
2023-11-12T09:33:29.568Z,7.55
2023-11-12T09:35:57.462Z,7.51
2023-11-12T09:38:25.316Z,7.34
2023-11-12T09:40:55.725Z,7.27
2023-11-12T09:43:26.995Z,7.21
2023-11-12T09:45:57.591Z,7.19
2023-11-12T09:48:35.585Z,7.17
2023-11-12T09:51:04.497Z,7.13
2023-11-12T09:53:35.048Z,7.06
2023-11-12T09:56:10.106Z,7.01
2023-11-12T09:58:38.449Z,6.98
2023-11-12T10:01:08.234Z,7.03
2023-11-12T10:03:38.203Z,7.03
2023-11-12T10:06:07.377Z,7.01
2023-11-12T10:08:36.922Z,6.99
2023-11-12T10:11:21.278Z,6.99
2023-11-12T10:13:50.221Z,6.97
2023-11-12T10:16:26.953Z,6.90
2023-11-12T10:19:09.965Z,6.94
2023-11-12T10:21:37.902Z,6.92
2023-11-12T10:24:07.067Z,6.88
2023-11-12T10:26:37.798Z,6.87
2023-11-12T10:29:07.424Z,6.86
2023-11-12T10:31:39.897Z,6.87
2023-11-12T10:34:09.501Z,6.89
2023-11-12T10:36:37.500Z,6.90
2023-11-12T10:39:11.145Z,6.93
2023-11-12T10:41:40.357Z,6.94
2023-11-12T10:44:13.280Z,6.94
2023-11-12T10:46:45.563Z,6.94
2023-11-12T10:49:15.684Z,6.90
2023-11-12T10:51:44.240Z,6.88
2023-11-12T10:54:15.096Z,6.92
2023-11-12T10:56:44.242Z,6.92
2023-11-12T10:59:16.136Z,6.86
2023-11-12T11:01:44.819Z,6.81
2023-11-12T11:04:16.636Z,6.77
2023-11-12T11:06:45.979Z,6.74
2023-11-12T11:09:15.396Z,6.71
2023-11-12T11:11:43.658Z,6.71
2023-11-12T11:14:25.070Z,6.69
2023-11-12T11:16:54.234Z,6.73
2023-11-12T11:19:57.542Z,6.75
2023-11-12T11:22:30.390Z,6.76
2023-11-12T11:25:22.893Z,6.75
2023-11-12T11:27:51.820Z,6.75
2023-11-12T11:30:20.488Z,6.73
2023-11-12T11:32:58.986Z,6.70
2023-11-12T11:35:30.045Z,6.69
2023-11-12T11:38:11.502Z,6.70
2023-11-12T11:40:40.711Z,6.71
2023-11-12T11:43:37.232Z,6.62
2023-11-12T11:46:09.448Z,6.60
2023-11-12T11:48:38.643Z,6.57
2023-11-12T11:51:44.385Z,6.59
2023-11-12T11:54:18.791Z,6.64
2023-11-12T11:56:47.141Z,6.66
2023-11-12T11:59:15.162Z,6.68
2023-11-12T12:01:44.618Z,6.72
2023-11-12T12:04:12.938Z,6.76
2023-11-12T12:06:45.273Z,6.73
2023-11-12T12:09:18.718Z,6.68
2023-11-12T12:11:48.330Z,6.64
2023-11-12T12:14:16.928Z,6.66
2023-11-12T12:16:46.691Z,6.63
2023-11-12T12:19:19.505Z,6.64
2023-11-12T12:21:52.261Z,6.67
2023-11-12T12:24:23.814Z,6.70
2023-11-12T12:26:52.813Z,6.70
2023-11-12T12:29:22.520Z,6.70
2023-11-12T12:31:51.162Z,6.69
2023-11-12T12:34:20.722Z,6.69
2023-11-12T12:37:00.869Z,6.67
2023-11-12T12:39:30.249Z,6.66
2023-11-12T12:41:59.630Z,6.67
2023-11-12T12:44:30.070Z,6.68
2023-11-12T12:46:57.927Z,6.67
2023-11-12T12:49:33.676Z,6.66
2023-11-12T12:52:02.206Z,6.66
2023-11-12T12:54:32.389Z,6.62
2023-11-12T12:57:05.361Z,6.66
2023-11-12T12:59:38.951Z,6.65
2023-11-12T13:02:07.010Z,6.61
2023-11-12T13:04:36.323Z,6.66
2023-11-12T13:07:08.236Z,6.68
2023-11-12T13:09:39.796Z,6.71
2023-11-12T13:12:10.776Z,6.74
2023-11-12T13:14:38.803Z,6.77
2023-11-12T13:17:06.644Z,6.79
2023-11-12T13:19:34.623Z,6.78
2023-11-12T13:22:03.992Z,6.77
2023-11-12T13:24:35.344Z,6.74
2023-11-12T13:27:05.102Z,6.73
2023-11-12T13:29:32.912Z,6.75
2023-11-12T13:32:00.936Z,6.75
2023-11-12T13:34:28.752Z,6.74
2023-11-12T13:36:56.578Z,6.74
2023-11-12T13:39:24.454Z,6.75
2023-11-12T13:41:52.626Z,6.77
2023-11-12T13:44:23.560Z,6.81
2023-11-12T13:46:52.578Z,6.83
2023-11-12T13:49:21.161Z,6.80
2023-11-12T13:51:49.160Z,6.85
2023-11-12T13:54:17.012Z,6.87
2023-11-12T13:56:44.787Z,6.88
2023-11-12T13:59:13.726Z,6.89
2023-11-12T14:01:42.984Z,6.97
2023-11-12T14:04:11.107Z,6.96
2023-11-12T14:06:39.756Z,6.92
2023-11-12T14:09:09.610Z,6.87
2023-11-12T14:11:38.138Z,6.83
2023-11-12T14:14:07.140Z,6.84
2023-11-12T14:16:37.347Z,6.84
2023-11-12T14:19:11.905Z,6.82
2023-11-12T14:21:40.778Z,6.80
2023-11-12T14:24:09.469Z,6.77
2023-11-12T14:26:37.378Z,6.74
2023-11-12T14:29:05.281Z,6.73
2023-11-12T14:31:35.492Z,6.71
2023-11-12T14:34:03.436Z,6.72
2023-11-12T14:36:32.764Z,6.72
2023-11-12T14:39:01.340Z,6.74
2023-11-12T14:41:30.189Z,6.74
2023-11-12T14:43:58.012Z,6.76
2023-11-12T14:46:25.824Z,6.75
2023-11-12T14:48:53.715Z,6.74
2023-11-12T14:51:21.599Z,6.72
2023-11-12T14:53:57.382Z,6.70
2023-11-12T14:56:32.266Z,6.72
2023-11-12T14:59:00.089Z,6.71
2023-11-12T15:01:28.424Z,6.68
2023-11-12T15:03:56.384Z,6.66
2023-11-12T15:06:24.449Z,6.66
2023-11-12T15:08:53.702Z,6.68
2023-11-12T15:11:21.727Z,6.68
2023-11-12T15:13:50.194Z,6.65
2023-11-12T15:16:24.514Z,6.63
2023-11-12T15:18:53.036Z,6.60
2023-11-12T15:21:21.145Z,6.59
2023-11-12T15:23:49.084Z,6.58
2023-11-12T15:26:18.499Z,6.56
2023-11-12T15:28:48.136Z,6.52
2023-11-12T15:31:16.755Z,6.49
2023-11-12T15:33:44.745Z,6.48
2023-11-12T15:36:12.616Z,6.49
2023-11-12T15:38:40.732Z,6.50
2023-11-12T15:41:08.704Z,6.47
2023-11-12T15:43:38.262Z,6.47
2023-11-12T15:46:06.709Z,6.49
2023-11-12T15:48:34.619Z,6.50
2023-11-12T15:51:02.576Z,6.50
2023-11-12T15:53:32.687Z,6.47
2023-11-12T15:56:00.996Z,6.46
2023-11-12T15:58:29.604Z,6.41
2023-11-12T16:00:58.919Z,6.40
2023-11-12T16:03:27.072Z,6.37
2023-11-12T16:05:55.448Z,6.33
2023-11-12T16:08:24.811Z,6.34
2023-11-12T16:10:54.099Z,6.33
2023-11-12T16:13:22.198Z,6.34
2023-11-12T16:15:50.006Z,6.31
2023-11-12T16:18:19.226Z,6.33
2023-11-12T16:20:50.881Z,6.33
2023-11-12T16:23:18.707Z,6.33
2023-11-12T16:25:46.574Z,6.33
2023-11-12T16:28:14.611Z,6.35
2023-11-12T16:30:42.536Z,6.35
2023-11-12T16:33:13.294Z,6.32
2023-11-12T16:35:42.617Z,6.29
2023-11-12T16:38:12.057Z,6.30
2023-11-12T16:40:40.362Z,6.32
2023-11-12T16:43:08.197Z,6.33
2023-11-12T16:45:38.118Z,6.35
2023-11-12T16:48:06.527Z,6.34
2023-11-12T16:50:34.392Z,6.33
2023-11-12T16:53:05.463Z,6.36
2023-11-12T16:55:33.265Z,6.37
2023-11-12T16:58:01.132Z,6.36
2023-11-12T17:00:30.066Z,6.40
2023-11-12T17:02:57.957Z,6.40
2023-11-12T17:05:25.782Z,6.40
2023-11-12T17:07:53.654Z,6.41
2023-11-12T17:10:22.874Z,6.42
2023-11-12T17:12:52.131Z,6.42
2023-11-12T17:15:20.320Z,6.40
2023-11-12T17:17:49.730Z,6.36
2023-11-12T17:20:18.672Z,6.38
2023-11-12T17:22:48.555Z,6.42
2023-11-12T17:25:17.033Z,6.41
2023-11-12T17:27:46.254Z,6.41
2023-11-12T17:30:14.882Z,6.46
2023-11-12T17:32:42.734Z,6.46
2023-11-12T17:35:12.230Z,6.48
2023-11-12T17:37:40.163Z,6.47
2023-11-12T17:40:10.003Z,6.46
2023-11-12T17:42:38.461Z,6.43
2023-11-12T17:45:12.103Z,6.41
2023-11-12T17:47:43.307Z,6.42
2023-11-12T17:50:12.110Z,6.45
2023-11-12T17:52:40.110Z,6.43
2023-11-12T17:55:09.690Z,6.44
2023-11-12T17:57:38.146Z,6.44
2023-11-12T18:00:10.345Z,6.45
2023-11-12T18:02:39.318Z,6.46
2023-11-12T18:05:07.484Z,6.47
2023-11-12T18:07:35.504Z,6.48
2023-11-12T18:10:04.847Z,6.50
2023-11-12T18:12:32.782Z,6.49
2023-11-12T18:15:00.815Z,6.49
2023-11-12T18:17:30.053Z,6.49
2023-11-12T18:19:58.154Z,6.48
2023-11-12T18:22:29.922Z,6.45
2023-11-12T18:25:01.651Z,6.45
2023-11-12T18:27:40.878Z,6.46
2023-11-12T18:30:11.758Z,6.44
2023-11-12T18:32:41.914Z,6.43
2023-11-12T18:38:33.198Z,6.49
2023-11-12T18:41:01.634Z,6.50
2023-11-12T18:43:29.718Z,6.50
2023-11-12T18:46:01.913Z,6.49
2023-11-12T18:48:31.558Z,6.46
2023-11-12T18:51:00.037Z,6.46
2023-11-12T18:53:28.437Z,6.45
2023-11-12T18:56:01.132Z,6.42
2023-11-12T18:58:33.523Z,6.40
2023-11-12T19:01:08.020Z,6.36
2023-11-12T19:03:38.412Z,6.33
2023-11-12T19:06:07.174Z,6.33
2023-11-12T19:09:02.098Z,6.30
2023-11-12T19:11:30.256Z,6.23
2023-11-12T19:14:03.223Z,6.20
2023-11-12T19:16:37.025Z,6.16
2023-11-12T19:19:07.268Z,6.13
2023-11-12T19:21:39.453Z,6.12
2023-11-12T19:24:11.275Z,6.07
2023-11-12T19:26:39.326Z,6.05
2023-11-12T19:29:07.212Z,6.01
2023-11-12T19:31:35.108Z,6.01
2023-11-12T19:34:03.106Z,6.01
2023-11-12T19:36:32.371Z,5.97
2023-11-12T19:39:00.244Z,5.91
2023-11-12T19:41:29.768Z,5.90
2023-11-12T19:43:57.708Z,5.89
2023-11-12T19:46:25.608Z,5.89
2023-11-12T19:48:54.209Z,5.87
2023-11-12T19:51:22.554Z,5.82
2023-11-12T19:53:51.806Z,5.82
2023-11-12T19:56:19.577Z,5.80
2023-11-12T19:58:49.212Z,5.75
2023-11-12T20:01:17.602Z,5.73
2023-11-12T20:03:46.254Z,5.70
2023-11-12T20:06:14.282Z,5.72
2023-11-12T20:08:42.152Z,5.71
2023-11-12T20:11:14.479Z,5.73
2023-11-12T20:13:42.311Z,5.70
2023-11-12T20:16:10.689Z,5.66
2023-11-12T20:18:38.739Z,5.68
2023-11-12T20:21:10.678Z,5.69
2023-11-12T20:23:39.070Z,5.66
2023-11-12T20:26:07.500Z,5.69
2023-11-12T20:28:36.785Z,5.66
2023-11-12T20:31:06.001Z,5.62
2023-11-12T20:33:33.942Z,5.60
2023-11-12T20:36:01.977Z,5.59
2023-11-12T20:38:29.995Z,5.57
2023-11-12T20:40:57.836Z,5.55
2023-11-12T20:43:25.765Z,5.54
2023-11-12T20:45:55.710Z,5.51
2023-11-12T20:48:23.556Z,5.49
2023-11-12T20:50:51.404Z,5.47
2023-11-12T20:53:19.231Z,5.45
2023-11-12T20:55:47.038Z,5.43
2023-11-12T20:58:14.888Z,5.39
2023-11-12T21:00:44.455Z,5.37
2023-11-12T21:03:13.730Z,5.37
2023-11-12T21:05:41.597Z,5.35
2023-11-12T21:08:10.694Z,5.29
2023-11-12T21:10:38.481Z,5.25
2023-11-12T21:13:06.393Z,5.23
2023-11-12T21:15:34.176Z,5.21
2023-11-12T21:18:03.291Z,5.18
2023-11-12T21:20:33.808Z,5.14
2023-11-12T21:23:02.947Z,5.11
2023-11-12T21:25:30.852Z,5.11
2023-11-12T21:27:58.877Z,5.10
2023-11-12T21:30:27.272Z,5.10
2023-11-12T21:32:58.764Z,5.09
2023-11-12T21:35:27.774Z,5.06
2023-11-12T21:37:58.316Z,5.04
2023-11-12T21:40:26.345Z,5.03
2023-11-12T21:42:54.230Z,5.03
2023-11-12T21:45:28.452Z,5.02
2023-11-12T21:47:56.649Z,5.02
2023-11-12T21:50:25.441Z,5.02
2023-11-12T21:52:55.626Z,5.00
2023-11-12T21:55:26.088Z,4.98
2023-11-12T21:57:55.418Z,4.97
2023-11-12T22:00:27.575Z,4.96
2023-11-12T22:02:56.303Z,4.96
2023-11-12T22:05:25.719Z,4.96
2023-11-12T22:07:53.557Z,5.00
2023-11-12T22:10:21.519Z,5.01
2023-11-12T22:12:52.145Z,4.98
2023-11-12T22:15:20.060Z,4.99
2023-11-12T22:17:49.742Z,5.00
2023-11-12T22:20:18.474Z,5.00
2023-11-12T22:22:47.920Z,4.98
2023-11-12T22:25:16.767Z,4.97
2023-11-12T22:27:49.253Z,4.96
2023-11-12T22:30:19.781Z,4.94
2023-11-12T22:32:49.823Z,4.94
2023-11-12T22:35:18.387Z,4.91
2023-11-12T22:37:46.198Z,4.92
2023-11-12T22:40:13.369Z,4.94
2023-11-12T22:42:41.459Z,4.94
2023-11-12T22:45:12.406Z,4.93
2023-11-12T22:47:43.200Z,4.94
2023-11-12T22:50:13.929Z,4.92
2023-11-12T22:52:41.865Z,4.91
2023-11-12T22:55:10.938Z,4.92
2023-11-12T22:57:40.656Z,4.89
2023-11-12T23:00:36.898Z,4.89
2023-11-12T23:03:13.609Z,4.89
2023-11-12T23:05:42.045Z,4.89
2023-11-12T23:08:11.211Z,4.89
2023-11-12T23:10:40.492Z,4.89
2023-11-12T23:13:08.669Z,4.91
2023-11-12T23:15:36.547Z,4.90
2023-11-12T23:18:06.145Z,4.90
2023-11-12T23:20:35.713Z,4.88
2023-11-12T23:23:03.965Z,4.87
2023-11-12T23:25:31.919Z,4.85
2023-11-12T23:28:00.898Z,4.85
2023-11-12T23:30:29.342Z,4.83
2023-11-12T23:33:05.043Z,4.84
2023-11-12T23:35:35.163Z,4.83
2023-11-12T23:38:07.525Z,4.82
2023-11-12T23:40:35.335Z,4.79
2023-11-12T23:43:03.408Z,4.78
2023-11-12T23:45:31.311Z,4.78
2023-11-12T23:47:59.195Z,4.78
2023-11-12T23:50:27.941Z,4.79
2023-11-12T23:52:55.749Z,4.79
2023-11-12T23:55:25.245Z,4.81
2023-11-12T23:57:53.238Z,4.79
